createdAt,value
2022-09-25T00:04:38.558Z,23.10
2022-09-25T00:14:44.484Z,21.40
2022-09-25T00:24:50.713Z,23.70
2022-09-25T00:34:56.650Z,21.50
2022-09-25T00:45:03.849Z,24.60
2022-09-25T00:55:12.660Z,19.70
2022-09-25T01:05:22.588Z,18.40
2022-09-25T01:15:37.501Z,20.40
2022-09-25T01:25:58.117Z,20.20
2022-09-25T01:36:09.394Z,21.10
2022-09-25T01:46:19.316Z,21.60
2022-09-25T01:56:33.689Z,20.40
2022-09-25T02:06:44.898Z,17.20
2022-09-25T02:16:55.693Z,16.60
2022-09-25T02:27:01.456Z,15.20
2022-09-25T02:37:13.242Z,15.80
2022-09-25T02:47:32.566Z,17.10
2022-09-25T02:57:43.392Z,18.80
2022-09-25T03:08:07.019Z,16.50
2022-09-25T03:18:12.868Z,17.50
2022-09-25T03:28:18.871Z,18.60
2022-09-25T03:38:24.540Z,20.10
2022-09-25T03:48:30.150Z,19.20
2022-09-25T03:58:36.119Z,19.20
2022-09-25T04:08:41.908Z,17.60
2022-09-25T04:18:47.722Z,18.30
2022-09-25T04:28:53.338Z,20.30
2022-09-25T04:38:58.932Z,17.60
2022-09-25T04:49:04.441Z,17.10
2022-09-25T04:59:11.778Z,20.90
2022-09-25T05:09:17.629Z,21.20
2022-09-25T05:19:23.253Z,20.30
2022-09-25T05:29:28.810Z,21.60
2022-09-25T05:39:34.370Z,19.60
2022-09-25T05:49:39.976Z,16.10
2022-09-25T05:59:45.625Z,18.20
2022-09-25T06:09:51.264Z,15.90
2022-09-25T06:19:57.017Z,17.50
2022-09-25T06:30:02.814Z,17.20
2022-09-25T06:40:11.133Z,17.00
2022-09-25T07:00:21.520Z,14.50
2022-09-25T07:10:27.244Z,15.50
2022-09-25T07:20:32.934Z,14.60
2022-09-25T07:30:38.605Z,12.70
2022-09-25T07:40:44.603Z,13.00
2022-09-25T07:50:50.473Z,12.90
2022-09-25T08:01:00.145Z,12.00
2022-09-25T08:11:08.029Z,11.60
2022-09-25T08:21:15.177Z,12.80
2022-09-25T08:31:21.664Z,11.20
2022-09-25T08:41:31.172Z,8.50
2022-09-25T08:51:40.505Z,9.40
2022-09-25T09:01:53.280Z,7.90
2022-09-25T09:12:03.846Z,6.80
2022-09-25T09:22:13.530Z,8.20
2022-09-25T09:32:35.073Z,7.20
2022-09-25T09:42:51.275Z,6.70
2022-09-25T09:53:03.244Z,5.90
2022-09-25T10:03:22.216Z,5.50
2022-09-25T10:13:32.926Z,4.80
2022-09-25T10:23:42.880Z,6.10
2022-09-25T10:34:04.977Z,5.60
2022-09-25T10:44:24.076Z,4.90
2022-09-25T10:54:30.062Z,5.70
2022-09-25T11:04:36.569Z,5.80
2022-09-25T11:14:55.282Z,6.10
2022-09-25T11:25:15.420Z,5.50
2022-09-25T11:35:45.460Z,4.70
2022-09-25T11:45:57.113Z,5.10
2022-09-25T11:56:17.442Z,4.80
2022-09-25T12:06:39.697Z,4.40
2022-09-25T12:16:53.733Z,5.20
2022-09-25T12:27:10.063Z,4.40
2022-09-25T12:37:29.567Z,4.50
2022-09-25T12:47:41.555Z,3.90
2022-09-25T12:57:51.890Z,3.20
2022-09-25T13:08:06.195Z,4.50
2022-09-25T13:18:24.216Z,3.60
2022-09-25T13:28:33.509Z,4.20
2022-09-25T13:39:04.253Z,4.00
2022-09-25T13:49:36.246Z,2.90
2022-09-25T13:59:42.576Z,3.60
2022-09-25T14:09:53.796Z,3.30
2022-09-25T14:20:01.129Z,3.20
2022-09-25T14:30:13.930Z,3.30
2022-09-25T14:40:24.638Z,3.20
2022-09-25T14:50:33.477Z,3.90
2022-09-25T15:00:48.102Z,3.40
2022-09-25T15:11:03.894Z,3.70
2022-09-25T15:21:15.270Z,5.40
2022-09-25T15:31:21.699Z,4.50
2022-09-25T15:41:28.289Z,4.70
2022-09-25T15:51:37.200Z,3.60
2022-09-25T16:02:02.270Z,4.50
2022-09-25T16:12:23.185Z,4.20
2022-09-25T16:22:31.991Z,4.00
2022-09-25T16:32:37.745Z,4.80
2022-09-25T16:42:43.681Z,5.70
2022-09-25T16:52:50.002Z,8.10
2022-09-25T17:02:56.615Z,7.00
2022-09-25T17:13:03.924Z,13.50
2022-09-25T17:23:10.915Z,25.10
2022-09-25T17:33:18.941Z,20.20
2022-09-25T17:43:24.609Z,22.00
2022-09-25T17:53:31.990Z,29.90
2022-09-25T18:03:37.695Z,43.40
2022-09-25T18:13:43.877Z,25.60
2022-09-25T18:23:49.581Z,19.90
2022-09-25T18:33:55.793Z,19.90
2022-09-25T18:44:01.733Z,22.30
2022-09-25T18:54:08.867Z,25.00
2022-09-25T19:04:17.697Z,33.90
2022-09-25T19:14:24.210Z,28.30
2022-09-25T19:24:30.983Z,25.70
2022-09-25T19:34:37.106Z,28.30
2022-09-25T19:44:42.850Z,27.30
2022-09-25T19:54:48.559Z,28.10
2022-09-25T20:04:54.209Z,28.50
2022-09-25T20:14:59.883Z,30.90
2022-09-25T20:25:06.202Z,31.90
2022-09-25T20:35:12.434Z,30.80
2022-09-25T20:45:18.591Z,31.60
2022-09-25T20:55:24.331Z,31.10
2022-09-25T21:05:30.240Z,37.40
2022-09-25T21:15:37.465Z,39.60
2022-09-25T21:25:43.110Z,30.80
2022-09-25T21:35:50.515Z,29.90
2022-09-25T21:45:59.824Z,34.20
2022-09-25T21:56:08.101Z,36.00
2022-09-25T22:06:16.042Z,34.70
2022-09-25T22:16:23.956Z,32.10
2022-09-25T22:26:30.813Z,28.40
2022-09-25T22:36:37.316Z,29.50
2022-09-25T22:46:43.036Z,29.60
2022-09-25T22:56:48.929Z,30.90
2022-09-25T23:06:54.677Z,29.20
2022-09-25T23:17:01.271Z,27.30
2022-09-25T23:27:07.010Z,26.70
2022-09-25T23:37:13.720Z,28.10
2022-09-25T23:47:19.448Z,24.60
2022-09-25T23:57:25.104Z,24.60
